createdAt,value
2023-01-23T00:01:33.848Z,55.13
2023-01-23T00:04:01.656Z,59.53
2023-01-23T00:06:29.483Z,126.70
2023-01-23T00:08:57.741Z,57.08
2023-01-23T00:11:30.279Z,61.70
2023-01-23T00:13:59.284Z,70.10
2023-01-23T00:16:30.228Z,53.95
2023-01-23T00:18:57.819Z,52.67
2023-01-23T00:21:27.896Z,60.28
2023-01-23T00:23:57.164Z,93.05
2023-01-23T00:26:28.291Z,81.25
2023-01-23T00:28:56.903Z,66.28
2023-01-23T00:31:30.882Z,55.33
2023-01-23T00:34:00.517Z,65.20
2023-01-23T00:36:30.904Z,71.88
2023-01-23T00:38:58.147Z,69.45
2023-01-23T00:41:25.845Z,47.63
2023-01-23T00:43:54.851Z,43.03
2023-01-23T00:46:23.316Z,46.08
2023-01-23T00:48:51.601Z,41.08
2023-01-23T00:51:20.049Z,41.92
2023-01-23T00:53:47.592Z,30.92
2023-01-23T00:56:15.432Z,32.05
2023-01-23T00:58:45.032Z,69.10
2023-01-23T01:01:15.598Z,51.63
2023-01-23T01:03:44.149Z,47.22
2023-01-23T01:06:12.789Z,47.53
2023-01-23T01:08:40.762Z,45.50
2023-01-23T01:11:08.902Z,44.60
2023-01-23T01:13:36.689Z,48.45
2023-01-23T01:16:04.670Z,47.20
2023-01-23T01:18:31.904Z,40.88
2023-01-23T01:20:59.753Z,39.08
2023-01-23T01:23:27.279Z,36.85
2023-01-23T01:26:00.444Z,47.70
2023-01-23T01:28:30.550Z,46.53
2023-01-23T01:30:58.607Z,70.65
2023-01-23T01:33:28.504Z,47.65
2023-01-23T01:35:57.020Z,50.28
2023-01-23T01:38:24.632Z,74.60
2023-01-23T01:40:52.884Z,52.80
2023-01-23T01:43:26.901Z,49.40
2023-01-23T01:56:24.003Z,54.00
2023-01-23T01:59:49.590Z,57.40
2023-01-23T02:02:50.628Z,52.67
2023-01-23T02:05:24.304Z,56.83
2023-01-23T02:08:00.414Z,51.20
2023-01-23T02:10:28.011Z,50.70
2023-01-23T02:12:58.504Z,55.88
2023-01-23T02:15:26.079Z,46.60
2023-01-23T02:17:55.095Z,48.65
2023-01-23T02:20:26.030Z,45.70
2023-01-23T02:22:54.119Z,57.03
2023-01-23T02:26:06.021Z,56.47
2023-01-23T02:28:43.226Z,40.67
2023-01-23T02:31:12.944Z,42.83
2023-01-23T02:33:40.209Z,44.45
2023-01-23T02:36:09.212Z,47.53
2023-01-23T02:38:44.624Z,50.78
2023-01-23T02:41:16.054Z,57.50
2023-01-23T02:43:43.525Z,51.67
2023-01-23T02:46:12.703Z,57.45
2023-01-23T02:48:40.321Z,69.28
2023-01-23T02:51:08.027Z,63.30
2023-01-23T02:53:35.356Z,49.30
2023-01-23T02:56:02.848Z,77.82
2023-01-23T02:58:48.604Z,50.00
2023-01-23T03:01:16.224Z,53.20
2023-01-23T03:03:43.593Z,48.22
2023-01-23T03:06:12.044Z,48.70
2023-01-23T03:08:47.846Z,46.67
2023-01-23T03:11:18.600Z,47.90
2023-01-23T03:13:47.343Z,41.53
2023-01-23T03:16:15.755Z,48.00
2023-01-23T03:18:53.923Z,54.03
2023-01-23T03:21:22.251Z,58.15
2023-01-23T03:23:49.556Z,58.45
2023-01-23T03:26:18.634Z,54.88
2023-01-23T03:29:06.119Z,53.90
2023-01-23T03:31:33.770Z,48.33
2023-01-23T03:34:01.439Z,46.33
2023-01-23T03:36:30.548Z,51.65
2023-01-23T03:39:17.305Z,47.60
2023-01-23T03:41:45.937Z,44.08
2023-01-23T03:44:13.448Z,46.55
2023-01-23T03:46:41.699Z,53.88
2023-01-23T03:49:08.989Z,49.63
2023-01-23T03:51:36.550Z,58.00
2023-01-23T03:54:03.808Z,56.88
2023-01-23T03:56:33.554Z,53.42
2023-01-23T03:59:01.460Z,50.63
2023-01-23T04:01:29.176Z,61.60
2023-01-23T04:03:56.372Z,55.90
2023-01-23T04:06:25.016Z,56.63
2023-01-23T04:08:52.248Z,57.22
2023-01-23T04:11:20.384Z,63.35
2023-01-23T04:13:47.572Z,58.97
2023-01-23T04:16:15.910Z,50.58
2023-01-23T04:18:43.088Z,51.88
2023-01-23T04:21:11.042Z,56.95
2023-01-23T04:23:40.568Z,53.35
2023-01-23T04:26:08.189Z,45.60
2023-01-23T04:28:35.543Z,51.80
2023-01-23T04:31:05.230Z,48.65
2023-01-23T04:33:34.374Z,47.08
2023-01-23T04:36:05.834Z,53.22
2023-01-23T04:38:35.093Z,47.58
2023-01-23T04:41:20.819Z,48.85
2023-01-23T04:43:48.209Z,45.25
2023-01-23T04:46:16.427Z,48.38
2023-01-23T04:49:12.800Z,46.67
2023-01-23T04:51:40.899Z,59.35
2023-01-23T04:54:09.069Z,56.08
2023-01-23T04:56:36.614Z,59.67
2023-01-23T04:59:05.489Z,56.85
2023-01-23T05:01:33.580Z,55.65
2023-01-23T05:04:03.530Z,58.55
2023-01-23T05:06:31.734Z,64.85
2023-01-23T05:08:59.622Z,61.63
2023-01-23T05:11:34.430Z,57.45
2023-01-23T05:14:02.154Z,59.47
2023-01-23T05:16:32.524Z,57.80
2023-01-23T05:19:18.560Z,52.67
2023-01-23T05:21:46.612Z,54.10
2023-01-23T05:24:17.477Z,55.65
2023-01-23T05:26:46.138Z,66.05
2023-01-23T05:29:14.007Z,71.78
2023-01-23T05:31:50.310Z,69.25
2023-01-23T05:34:35.811Z,69.65
2023-01-23T05:37:05.521Z,58.80
2023-01-23T05:39:35.381Z,55.53
2023-01-23T05:42:03.123Z,48.72
2023-01-23T05:44:50.499Z,56.67
2023-01-23T05:47:36.845Z,63.35
2023-01-23T05:50:15.270Z,66.38
2023-01-23T05:52:44.774Z,67.18
2023-01-23T05:55:12.344Z,67.45
2023-01-23T05:57:42.117Z,65.38
2023-01-23T06:00:28.149Z,45.35
2023-01-23T06:03:18.342Z,77.45
2023-01-23T06:05:52.268Z,53.15
2023-01-23T06:08:20.625Z,54.33
2023-01-23T06:10:48.058Z,56.17
2023-01-23T06:13:16.327Z,54.97
2023-01-23T06:15:43.577Z,50.47
2023-01-23T06:18:14.193Z,56.70
2023-01-23T06:20:41.434Z,80.90
2023-01-23T06:23:09.271Z,76.25
2023-01-23T06:25:37.923Z,68.82
2023-01-23T06:28:10.541Z,60.38
2023-01-23T06:30:38.071Z,60.97
2023-01-23T06:33:13.454Z,44.22
2023-01-23T06:35:42.347Z,50.65
2023-01-23T06:38:10.663Z,50.58
2023-01-23T06:40:38.804Z,53.30
2023-01-23T06:43:42.200Z,50.63
2023-01-23T06:46:16.227Z,50.95
2023-01-23T06:48:44.088Z,52.60
2023-01-23T06:51:12.149Z,48.05
2023-01-23T06:53:42.885Z,58.60
2023-01-23T06:56:13.024Z,60.65
2023-01-23T06:58:44.530Z,48.22
2023-01-23T07:01:20.550Z,51.63
2023-01-23T07:04:20.298Z,48.42
2023-01-23T07:06:50.752Z,47.67
2023-01-23T07:09:20.135Z,40.60
2023-01-23T07:12:07.631Z,39.08
2023-01-23T07:14:35.450Z,40.00
2023-01-23T07:17:03.063Z,34.70
2023-01-23T07:19:31.766Z,51.42
2023-01-23T07:22:01.329Z,52.88
2023-01-23T07:24:30.259Z,58.83
2023-01-23T07:26:57.376Z,70.53
2023-01-23T07:29:25.139Z,70.70
2023-01-23T07:31:53.220Z,65.43
2023-01-23T07:34:20.935Z,65.15
2023-01-23T07:36:48.144Z,73.35
2023-01-23T07:39:16.366Z,77.03
2023-01-23T07:41:46.119Z,79.38
2023-01-23T07:44:19.475Z,93.93
2023-01-23T07:46:50.402Z,101.30
2023-01-23T07:49:18.113Z,91.47
2023-01-23T07:51:45.609Z,89.72
2023-01-23T07:54:13.301Z,70.57
2023-01-23T07:56:40.589Z,75.55
2023-01-23T07:59:08.230Z,76.60
2023-01-23T08:01:35.453Z,77.68
2023-01-23T08:04:03.199Z,69.65
2023-01-23T08:06:30.375Z,69.43
2023-01-23T08:08:57.887Z,68.95
2023-01-23T08:11:26.706Z,62.50
2023-01-23T08:13:55.832Z,66.22
2023-01-23T08:16:23.075Z,62.80
2023-01-23T08:18:50.649Z,59.97
2023-01-23T08:21:18.866Z,54.53
2023-01-23T08:23:46.677Z,50.33
2023-01-23T08:26:16.341Z,49.47
2023-01-23T08:28:45.662Z,53.60
2023-01-23T08:31:14.178Z,57.72
2023-01-23T08:33:42.663Z,69.72
2023-01-23T08:36:12.811Z,72.13
2023-01-23T08:38:40.775Z,61.88
2023-01-23T08:41:11.723Z,66.07
2023-01-23T08:43:41.905Z,61.88
2023-01-23T08:46:10.224Z,53.10
2023-01-23T08:48:38.446Z,147.10
2023-01-23T08:51:09.234Z,179.13
2023-01-23T08:53:37.274Z,53.00
2023-01-23T08:56:16.469Z,74.90
2023-01-23T08:58:45.464Z,54.95
2023-01-23T09:01:14.595Z,55.75
2023-01-23T09:03:42.229Z,47.90
2023-01-23T09:06:11.414Z,47.30
2023-01-23T09:08:39.211Z,45.72
2023-01-23T09:11:08.974Z,45.28
2023-01-23T09:13:37.318Z,46.28
2023-01-23T09:16:08.438Z,53.00
2023-01-23T09:18:36.665Z,55.17
2023-01-23T09:21:13.190Z,53.55
2023-01-23T09:23:40.999Z,53.97
2023-01-23T09:26:13.467Z,59.35
2023-01-23T09:28:43.239Z,59.22
2023-01-23T09:31:13.544Z,63.25
2023-01-23T09:33:42.245Z,61.92
2023-01-23T09:36:10.339Z,63.92
2023-01-23T09:38:38.397Z,67.63
2023-01-23T09:41:18.620Z,67.38
2023-01-23T09:44:02.037Z,71.57
2023-01-23T09:46:37.421Z,98.20
2023-01-23T09:49:08.438Z,91.82
2023-01-23T09:51:39.221Z,74.30
2023-01-23T09:54:35.228Z,73.15
2023-01-23T09:57:11.870Z,67.43
2023-01-23T09:59:58.280Z,45.40
2023-01-23T10:02:27.234Z,50.15
2023-01-23T10:04:58.396Z,60.30
2023-01-23T10:07:49.942Z,70.03
2023-01-23T10:10:32.046Z,61.63
2023-01-23T10:13:12.107Z,58.08
2023-01-23T10:15:42.824Z,75.97
2023-01-23T10:18:42.305Z,73.45
2023-01-23T10:21:31.326Z,70.22
2023-01-23T10:24:05.212Z,64.30
2023-01-23T10:26:46.698Z,59.72
2023-01-23T10:29:37.037Z,55.75
2023-01-23T10:32:17.368Z,50.53
2023-01-23T10:35:00.358Z,53.38
2023-01-23T10:37:41.380Z,56.95
2023-01-23T10:40:17.587Z,50.45
2023-01-23T10:42:46.240Z,43.15
2023-01-23T10:45:19.299Z,39.85
2023-01-23T10:47:54.671Z,40.90
2023-01-23T10:50:40.877Z,52.42
2023-01-23T10:53:21.237Z,51.13
2023-01-23T10:55:52.230Z,55.40
2023-01-23T10:58:40.406Z,54.90
2023-01-23T11:01:30.335Z,46.00
2023-01-23T11:04:09.480Z,46.05
2023-01-23T11:06:38.444Z,45.10
2023-01-23T11:09:20.396Z,50.17
2023-01-23T11:12:04.966Z,49.75
2023-01-23T11:14:34.415Z,47.28
2023-01-23T11:17:23.112Z,43.65
2023-01-23T11:19:54.675Z,41.60
2023-01-23T11:22:36.946Z,44.83
2023-01-23T11:25:38.364Z,42.10
2023-01-23T11:28:27.267Z,34.17
2023-01-23T11:31:15.806Z,41.08
2023-01-23T11:34:00.357Z,42.72
2023-01-23T11:37:15.505Z,42.80
2023-01-23T11:39:55.076Z,41.83
2023-01-23T11:42:28.558Z,32.08
2023-01-23T11:45:00.419Z,33.13
2023-01-23T11:47:47.443Z,32.58
2023-01-23T11:50:35.413Z,31.90
2023-01-23T11:53:42.832Z,31.25
2023-01-23T11:56:11.190Z,33.08
2023-01-23T11:58:56.398Z,25.27
2023-01-23T12:01:29.817Z,23.63
2023-01-23T12:04:34.643Z,23.48
2023-01-23T12:07:16.963Z,21.17
2023-01-23T12:09:56.535Z,22.95
2023-01-23T12:12:51.470Z,20.92
2023-01-23T12:15:38.600Z,22.65
2023-01-23T12:18:25.093Z,24.70
2023-01-23T12:21:06.243Z,23.00
2023-01-23T12:23:57.082Z,25.15
2023-01-23T12:26:28.007Z,23.42
2023-01-23T12:29:23.369Z,22.50
2023-01-23T12:32:04.309Z,22.55
2023-01-23T12:34:37.366Z,22.83
2023-01-23T12:37:29.053Z,23.05
2023-01-23T12:40:23.367Z,20.73
2023-01-23T12:43:17.685Z,20.45
2023-01-23T12:45:51.975Z,20.15
2023-01-23T12:48:28.457Z,19.70
2023-01-23T12:51:29.511Z,18.98
2023-01-23T12:54:05.726Z,18.77
2023-01-23T12:56:39.994Z,19.05
2023-01-23T12:59:30.389Z,19.58
2023-01-23T13:02:05.965Z,20.58
2023-01-23T13:04:45.628Z,21.08
2023-01-23T13:07:44.695Z,17.63
2023-01-23T13:11:02.972Z,16.80
2023-01-23T13:13:31.282Z,15.00
2023-01-23T13:16:03.718Z,15.35
2023-01-23T13:18:51.069Z,13.98
2023-01-23T13:21:37.619Z,14.75
2023-01-23T13:24:41.740Z,15.10
2023-01-23T13:27:45.148Z,15.65
2023-01-23T13:30:31.768Z,13.75
2023-01-23T13:33:01.986Z,14.40
2023-01-23T13:35:47.916Z,15.30
2023-01-23T13:38:21.280Z,15.90
2023-01-23T13:41:04.580Z,14.82
2023-01-23T13:43:50.432Z,19.65
2023-01-23T13:46:26.857Z,21.25
2023-01-23T14:21:56.280Z,38.83
2023-01-23T14:24:30.993Z,26.43
2023-01-23T14:27:09.557Z,28.60
2023-01-23T14:29:37.870Z,26.20
2023-01-23T14:32:05.698Z,24.70
2023-01-23T14:34:39.527Z,29.23
2023-01-23T14:37:12.074Z,27.50
2023-01-23T14:39:40.960Z,26.52
2023-01-23T14:42:23.618Z,28.70
2023-01-23T14:44:52.567Z,27.10
2023-01-23T14:47:34.477Z,31.25
2023-01-23T14:50:03.930Z,34.20
2023-01-23T14:52:31.955Z,32.58
2023-01-23T14:55:07.745Z,32.80
2023-01-23T14:57:36.896Z,31.60
2023-01-23T15:00:05.135Z,31.30
2023-01-23T15:02:35.588Z,28.13
2023-01-23T15:05:27.265Z,33.33
2023-01-23T15:08:07.496Z,30.75
2023-01-23T15:10:47.038Z,32.75
2023-01-23T15:13:40.788Z,35.75
2023-01-23T15:16:31.948Z,42.08
2023-01-23T15:19:18.929Z,46.10
2023-01-23T15:24:14.275Z,42.85
2023-01-23T15:26:44.155Z,48.22
2023-01-23T15:29:12.071Z,44.33
2023-01-23T15:31:39.745Z,47.00
2023-01-23T15:34:16.728Z,50.17
2023-01-23T15:36:55.216Z,43.35
2023-01-23T15:39:28.509Z,41.38
2023-01-23T15:41:59.496Z,40.22
2023-01-23T15:44:29.697Z,36.42
2023-01-23T15:47:01.374Z,50.75
2023-01-23T15:49:30.146Z,66.90
2023-01-23T15:52:03.001Z,52.20
2023-01-23T15:54:36.360Z,91.28
2023-01-23T15:57:08.888Z,74.53
2023-01-23T15:59:37.537Z,67.70
2023-01-23T16:02:08.197Z,52.20
2023-01-23T16:04:39.027Z,50.00
2023-01-23T16:07:08.227Z,51.17
2023-01-23T16:09:40.711Z,58.50
2023-01-23T16:12:16.829Z,56.25
2023-01-23T16:14:44.620Z,57.17
2023-01-23T16:17:17.048Z,59.78
2023-01-23T16:19:45.540Z,57.33
2023-01-23T16:22:29.480Z,54.80
2023-01-23T16:24:58.621Z,52.78
2023-01-23T16:27:27.855Z,51.25
2023-01-23T16:29:56.721Z,54.75
2023-01-23T16:32:25.435Z,51.92
2023-01-23T16:34:53.216Z,55.50
2023-01-23T16:37:20.748Z,55.53
2023-01-23T16:39:48.532Z,60.88
2023-01-23T16:42:22.166Z,62.00
2023-01-23T16:44:50.836Z,57.22
2023-01-23T16:47:18.268Z,55.72
2023-01-23T16:49:52.639Z,58.15
2023-01-23T16:52:24.499Z,49.38
2023-01-23T16:54:54.229Z,49.08
2023-01-23T16:57:22.125Z,71.47
2023-01-23T16:59:50.899Z,58.88
2023-01-23T17:02:26.304Z,44.45
2023-01-23T17:04:54.753Z,121.47
2023-01-23T17:07:22.209Z,65.72
2023-01-23T17:09:50.281Z,73.45
2023-01-23T17:12:27.792Z,78.40
2023-01-23T17:14:56.615Z,88.10
2023-01-23T17:17:33.634Z,78.68
2023-01-23T17:20:05.555Z,69.15
2023-01-23T17:22:40.241Z,88.07
2023-01-23T17:25:15.570Z,66.57
2023-01-23T17:27:45.579Z,39.45
2023-01-23T17:30:19.819Z,27.10
2023-01-23T17:32:52.836Z,25.63
2023-01-23T17:35:24.583Z,33.40
2023-01-23T17:37:52.449Z,31.10
2023-01-23T17:40:20.637Z,26.33
2023-01-23T17:42:47.928Z,35.45
2023-01-23T17:45:20.435Z,40.17
2023-01-23T17:47:50.609Z,32.25
2023-01-23T17:50:21.204Z,38.58
2023-01-23T17:52:49.756Z,55.15
2023-01-23T17:55:24.175Z,48.80
2023-01-23T17:57:51.941Z,51.92
2023-01-23T18:00:21.257Z,52.58
2023-01-23T18:02:57.077Z,26.75
2023-01-23T18:07:54.636Z,20.58
2023-01-23T18:10:24.749Z,23.45
2023-01-23T18:13:04.393Z,24.60
2023-01-23T18:15:57.719Z,30.02
2023-01-23T18:18:34.140Z,31.60
2023-01-23T18:21:05.011Z,27.95
2023-01-23T18:23:37.190Z,27.27
2023-01-23T18:26:13.616Z,18.27
2023-01-23T18:29:18.558Z,20.23
2023-01-23T18:32:04.405Z,14.95
2023-01-23T18:35:09.221Z,19.48
2023-01-23T18:37:55.278Z,17.33
2023-01-23T18:40:28.766Z,23.00
2023-01-23T18:43:27.533Z,25.13
2023-01-23T18:45:56.590Z,23.65
2023-01-23T18:48:25.978Z,27.05
2023-01-23T18:51:33.649Z,24.92
2023-01-23T18:54:24.789Z,28.55
2023-01-23T18:57:10.617Z,48.72
2023-01-23T18:59:41.070Z,129.13
2023-01-23T19:02:27.416Z,125.72
2023-01-23T19:05:19.817Z,55.38
2023-01-23T19:07:49.712Z,66.43
2023-01-23T19:10:26.120Z,91.28
2023-01-23T19:13:06.549Z,61.55
2023-01-23T19:15:47.007Z,47.60
2023-01-23T19:18:43.463Z,38.17
2023-01-23T19:21:26.928Z,27.45
2023-01-23T19:24:09.808Z,43.33
2023-01-23T19:26:39.687Z,32.42
2023-01-23T19:29:20.873Z,40.55
2023-01-23T19:32:03.509Z,35.65
2023-01-23T19:34:34.413Z,32.03
2023-01-23T19:37:02.919Z,36.92
2023-01-23T19:39:31.053Z,30.90
2023-01-23T19:41:59.493Z,23.85
2023-01-23T19:44:30.132Z,39.72
2023-01-23T19:46:58.217Z,36.30
2023-01-23T19:49:25.698Z,39.03
2023-01-23T19:51:53.567Z,35.42
2023-01-23T19:54:23.960Z,54.72
2023-01-23T19:56:52.404Z,29.77
2023-01-23T19:59:21.201Z,46.35
2023-01-23T20:01:52.611Z,36.03
2023-01-23T20:04:22.774Z,29.73
2023-01-23T20:06:52.319Z,27.42
2023-01-23T20:09:20.159Z,49.17
2023-01-23T20:11:48.195Z,46.00
2023-01-23T20:14:15.974Z,93.35
2023-01-23T20:16:43.907Z,74.43
2023-01-23T20:19:16.726Z,46.97
2023-01-23T20:21:46.464Z,35.08
2023-01-23T20:24:15.331Z,31.38
2023-01-23T20:26:43.207Z,21.17
2023-01-23T20:29:11.843Z,49.05
2023-01-23T20:31:39.748Z,25.60
2023-01-23T20:34:07.555Z,23.20
2023-01-23T20:36:35.280Z,30.60
2023-01-23T20:39:03.889Z,29.73
2023-01-23T20:41:31.895Z,32.10
2023-01-23T20:43:59.230Z,52.13
2023-01-23T20:46:27.479Z,29.90
2023-01-23T20:48:55.955Z,84.35
2023-01-23T20:51:23.879Z,38.80
2023-01-23T20:53:51.379Z,27.13
2023-01-23T20:56:27.855Z,47.92
2023-01-23T20:59:15.345Z,87.75
2023-01-23T21:02:22.515Z,33.00
2023-01-23T21:04:51.839Z,32.60
2023-01-23T21:07:22.432Z,23.77
2023-01-23T21:09:49.990Z,23.90
2023-01-23T21:12:17.690Z,22.23
2023-01-23T21:14:45.243Z,38.65
2023-01-23T21:17:13.234Z,24.92
2023-01-23T21:19:40.964Z,22.13
2023-01-23T21:22:08.824Z,23.05
2023-01-23T21:24:37.175Z,23.35
2023-01-23T21:27:06.206Z,22.25
2023-01-23T21:29:34.295Z,22.95
2023-01-23T21:32:01.985Z,22.10
2023-01-23T21:34:29.379Z,20.05
2023-01-23T21:36:57.107Z,22.38
2023-01-23T21:39:24.318Z,25.58
2023-01-23T21:41:51.880Z,25.02
2023-01-23T21:44:19.328Z,17.88
2023-01-23T21:46:47.155Z,21.15
2023-01-23T21:49:14.361Z,21.17
2023-01-23T21:51:42.017Z,22.17
2023-01-23T21:54:09.309Z,26.33
2023-01-23T21:56:37.055Z,18.77
2023-01-23T21:59:04.322Z,21.67
2023-01-23T22:01:32.704Z,22.00
2023-01-23T22:04:06.958Z,19.85
2023-01-23T22:06:36.102Z,23.35
2023-01-23T22:09:04.065Z,21.98
2023-01-23T22:11:31.899Z,32.13
2023-01-23T22:13:59.348Z,27.83
2023-01-23T22:16:46.331Z,26.00
2023-01-23T22:19:16.282Z,27.20
2023-01-23T22:21:46.569Z,24.77
2023-01-23T22:24:15.341Z,31.00
2023-01-23T22:26:43.331Z,34.95
2023-01-23T22:29:12.646Z,29.85
2023-01-23T22:31:40.378Z,31.08
2023-01-23T22:34:07.626Z,32.60
2023-01-23T22:36:35.206Z,29.95
2023-01-23T22:39:02.412Z,25.63
2023-01-23T22:41:29.945Z,26.83
2023-01-23T22:43:59.478Z,37.05
2023-01-23T22:46:28.645Z,33.88
2023-01-23T22:48:55.863Z,29.98
2023-01-23T22:51:25.869Z,26.52
2023-01-23T22:53:54.655Z,23.15
2023-01-23T22:56:23.592Z,20.77
2023-01-23T22:58:53.239Z,20.38
2023-01-23T23:01:23.188Z,16.67
2023-01-23T23:03:50.952Z,22.33
2023-01-23T23:06:19.432Z,34.50
2023-01-23T23:08:47.951Z,28.10
2023-01-23T23:11:17.691Z,28.17
2023-01-23T23:13:45.799Z,22.63
2023-01-23T23:16:14.662Z,25.20
2023-01-23T23:18:42.085Z,32.00
2023-01-23T23:21:12.513Z,34.10
2023-01-23T23:23:43.010Z,33.80
2023-01-23T23:26:11.675Z,25.13
2023-01-23T23:28:39.316Z,22.38
2023-01-23T23:31:08.992Z,27.27
2023-01-23T23:33:36.353Z,39.25
2023-01-23T23:36:04.536Z,30.15
2023-01-23T23:38:31.784Z,29.75
2023-01-23T23:41:05.276Z,25.00
2023-01-23T23:43:33.166Z,25.60
2023-01-23T23:46:03.767Z,22.55
2023-01-23T23:48:32.113Z,19.27
2023-01-23T23:51:00.781Z,20.60
2023-01-23T23:53:28.464Z,18.63
2023-01-23T23:55:56.104Z,17.35
2023-01-23T23:58:24.121Z,18.13
